sensor_id;sensor_type;location;lat;lon;timestamp;pressure;altitude;pressure_sealevel;temperature;humidity
42519;BME280;28147;47.520;18.920;2023-07-16T00:01:45;98372.47;;;28.09;48.48
42519;BME280;28147;47.520;18.920;2023-07-16T00:04:10;98364.03;;;27.86;48.85
42519;BME280;28147;47.520;18.920;2023-07-16T00:06:36;98373.06;;;27.75;49.34
42519;BME280;28147;47.520;18.920;2023-07-16T00:09:01;98372.69;;;27.88;48.93
42519;BME280;28147;47.520;18.920;2023-07-16T00:11:26;98368.84;;;27.65;49.46
42519;BME280;28147;47.520;18.920;2023-07-16T00:13:52;98363.84;;;27.67;49.16
42519;BME280;28147;47.520;18.920;2023-07-16T00:16:17;98358.81;;;27.69;48.85
42519;BME280;28147;47.520;18.920;2023-07-16T00:18:44;98363.88;;;27.55;49.69
42519;BME280;28147;47.520;18.920;2023-07-16T00:21:10;98356.59;;;27.59;49.75
42519;BME280;28147;47.520;18.920;2023-07-16T00:23:36;98355.91;;;27.62;49.13
42519;BME280;28147;47.520;18.920;2023-07-16T00:26:01;98364.97;;;27.78;49.38
42519;BME280;28147;47.520;18.920;2023-07-16T00:28:27;98370.47;;;27.66;49.39
42519;BME280;28147;47.520;18.920;2023-07-16T00:30:52;98361.97;;;27.83;48.85
42519;BME280;28147;47.520;18.920;2023-07-16T00:33:18;98357.91;;;27.77;49.19
42519;BME280;28147;47.520;18.920;2023-07-16T00:35:49;98354.63;;;27.59;49.60
42519;BME280;28147;47.520;18.920;2023-07-16T00:38:19;98357.91;;;27.65;48.87
42519;BME280;28147;47.520;18.920;2023-07-16T00:40:45;98352.69;;;27.60;49.27
42519;BME280;28147;47.520;18.920;2023-07-16T00:43:11;98354.53;;;27.56;49.40
42519;BME280;28147;47.520;18.920;2023-07-16T00:45:37;98355.28;;;27.69;48.99
42519;BME280;28147;47.520;18.920;2023-07-16T00:48:05;98351.22;;;27.62;48.80
42519;BME280;28147;47.520;18.920;2023-07-16T00:50:32;98350.13;;;27.79;47.93
42519;BME280;28147;47.520;18.920;2023-07-16T00:53:02;98342.81;;;27.83;47.96
42519;BME280;28147;47.520;18.920;2023-07-16T00:55:29;98341.06;;;27.91;48.00
42519;BME280;28147;47.520;18.920;2023-07-16T00:57:57;98340.88;;;28.12;46.66
42519;BME280;28147;47.520;18.920;2023-07-16T01:00:25;98337.69;;;28.26;45.43
42519;BME280;28147;47.520;18.920;2023-07-16T01:02:51;98335.41;;;28.28;46.32
42519;BME280;28147;47.520;18.920;2023-07-16T01:05:16;98332.56;;;28.24;46.74
42519;BME280;28147;47.520;18.920;2023-07-16T01:07:50;98334.25;;;28.13;47.00
42519;BME280;28147;47.520;18.920;2023-07-16T01:10:18;98335.13;;;28.17;46.38
42519;BME280;28147;47.520;18.920;2023-07-16T01:12:44;98333.31;;;28.37;45.73
42519;BME280;28147;47.520;18.920;2023-07-16T01:15:10;98328.50;;;28.18;46.42
42519;BME280;28147;47.520;18.920;2023-07-16T01:17:36;98328.53;;;28.34;45.68
42519;BME280;28147;47.520;18.920;2023-07-16T01:20:01;98330.22;;;28.39;45.94
42519;BME280;28147;47.520;18.920;2023-07-16T01:28:05;98336.47;;;27.79;48.42
42519;BME280;28147;47.520;18.920;2023-07-16T01:30:34;98340.78;;;27.80;48.57
42519;BME280;28147;47.520;18.920;2023-07-16T01:33:03;98334.44;;;27.64;48.99
42519;BME280;28147;47.520;18.920;2023-07-16T01:35:30;98330.97;;;27.51;49.63
42519;BME280;28147;47.520;18.920;2023-07-16T01:37:55;98323.72;;;27.43;49.96
42519;BME280;28147;47.520;18.920;2023-07-16T01:40:20;98329.72;;;27.49;49.68
42519;BME280;28147;47.520;18.920;2023-07-16T01:42:46;98326.22;;;27.36;50.03
42519;BME280;28147;47.520;18.920;2023-07-16T01:45:11;98328.97;;;27.64;47.89
42519;BME280;28147;47.520;18.920;2023-07-16T01:50:24;98327.19;;;27.56;48.85
42519;BME280;28147;47.520;18.920;2023-07-16T01:52:50;98328.50;;;27.74;48.13
42519;BME280;28147;47.520;18.920;2023-07-16T01:55:15;98316.78;;;27.33;49.40
42519;BME280;28147;47.520;18.920;2023-07-16T01:57:41;98322.44;;;27.40;49.24
42519;BME280;28147;47.520;18.920;2023-07-16T02:00:07;98326.09;;;27.45;49.48
42519;BME280;28147;47.520;18.920;2023-07-16T02:02:33;98315.94;;;27.45;49.11
42519;BME280;28147;47.520;18.920;2023-07-16T02:04:59;98317.34;;;27.39;49.39
42519;BME280;28147;47.520;18.920;2023-07-16T02:07:24;98325.41;;;27.48;49.31
42519;BME280;28147;47.520;18.920;2023-07-16T02:09:50;98321.88;;;27.35;49.30
42519;BME280;28147;47.520;18.920;2023-07-16T02:12:15;98319.75;;;27.16;49.99
42519;BME280;28147;47.520;18.920;2023-07-16T02:14:40;98318.81;;;27.36;49.33
42519;BME280;28147;47.520;18.920;2023-07-16T02:17:06;98319.03;;;27.44;49.10
42519;BME280;28147;47.520;18.920;2023-07-16T02:19:31;98308.72;;;27.53;48.49
42519;BME280;28147;47.520;18.920;2023-07-16T02:21:56;98300.88;;;27.51;48.50
42519;BME280;28147;47.520;18.920;2023-07-16T02:24:22;98307.56;;;27.66;48.66
42519;BME280;28147;47.520;18.920;2023-07-16T02:26:47;98305.09;;;27.49;48.79
42519;BME280;28147;47.520;18.920;2023-07-16T02:29:13;98311.03;;;27.51;48.50
42519;BME280;28147;47.520;18.920;2023-07-16T02:31:38;98304.47;;;27.27;49.98
42519;BME280;28147;47.520;18.920;2023-07-16T02:34:04;98309.25;;;27.30;49.74
42519;BME280;28147;47.520;18.920;2023-07-16T02:36:29;98311.00;;;27.23;50.21
42519;BME280;28147;47.520;18.920;2023-07-16T02:38:54;98306.47;;;26.90;51.25
42519;BME280;28147;47.520;18.920;2023-07-16T02:41:20;98309.56;;;27.13;50.30
42519;BME280;28147;47.520;18.920;2023-07-16T02:43:46;98308.63;;;27.21;49.76
42519;BME280;28147;47.520;18.920;2023-07-16T02:46:11;98307.47;;;27.50;48.79
42519;BME280;28147;47.520;18.920;2023-07-16T02:48:37;98309.81;;;27.64;48.13
42519;BME280;28147;47.520;18.920;2023-07-16T02:51:02;98305.94;;;27.65;48.08
42519;BME280;28147;47.520;18.920;2023-07-16T02:53:28;98310.28;;;27.66;48.13
42519;BME280;28147;47.520;18.920;2023-07-16T02:55:53;98310.69;;;27.80;47.75
42519;BME280;28147;47.520;18.920;2023-07-16T02:58:19;98311.50;;;27.81;47.61
42519;BME280;28147;47.520;18.920;2023-07-16T03:00:44;98297.41;;;27.95;47.13
42519;BME280;28147;47.520;18.920;2023-07-16T03:03:10;98304.59;;;28.15;46.63
42519;BME280;28147;47.520;18.920;2023-07-16T03:05:35;98315.16;;;28.01;47.35
42519;BME280;28147;47.520;18.920;2023-07-16T03:08:04;98316.88;;;27.77;48.31
42519;BME280;28147;47.520;18.920;2023-07-16T03:10:29;98318.78;;;27.77;48.15
42519;BME280;28147;47.520;18.920;2023-07-16T03:12:55;98319.44;;;27.86;47.82
42519;BME280;28147;47.520;18.920;2023-07-16T03:15:20;98324.47;;;27.84;48.29
42519;BME280;28147;47.520;18.920;2023-07-16T03:17:45;98321.78;;;28.00;47.39
42519;BME280;28147;47.520;18.920;2023-07-16T03:20:11;98328.19;;;27.92;47.91
42519;BME280;28147;47.520;18.920;2023-07-16T03:22:38;98328.50;;;27.74;48.70
42519;BME280;28147;47.520;18.920;2023-07-16T03:25:03;98319.44;;;27.58;48.90
42519;BME280;28147;47.520;18.920;2023-07-16T03:27:29;98328.81;;;27.45;49.86
42519;BME280;28147;47.520;18.920;2023-07-16T03:29:55;98323.16;;;27.78;48.21
42519;BME280;28147;47.520;18.920;2023-07-16T03:32:20;98330.28;;;27.82;48.08
42519;BME280;28147;47.520;18.920;2023-07-16T03:34:46;98324.72;;;27.79;48.56
42519;BME280;28147;47.520;18.920;2023-07-16T03:37:11;98331.06;;;27.55;49.65
42519;BME280;28147;47.520;18.920;2023-07-16T03:39:36;98331.97;;;27.59;49.68
42519;BME280;28147;47.520;18.920;2023-07-16T03:42:02;98336.66;;;27.46;49.89
42519;BME280;28147;47.520;18.920;2023-07-16T03:44:29;98340.66;;;27.89;48.36
42519;BME280;28147;47.520;18.920;2023-07-16T03:46:54;98343.69;;;28.00;47.83
42519;BME280;28147;47.520;18.920;2023-07-16T03:49:19;98345.38;;;28.20;47.54
42519;BME280;28147;47.520;18.920;2023-07-16T03:51:45;98339.97;;;28.08;48.41
42519;BME280;28147;47.520;18.920;2023-07-16T03:54:10;98346.91;;;27.89;49.10
42519;BME280;28147;47.520;18.920;2023-07-16T03:56:36;98346.47;;;28.03;48.33
42519;BME280;28147;47.520;18.920;2023-07-16T03:59:01;98346.88;;;28.18;48.19
42519;BME280;28147;47.520;18.920;2023-07-16T04:01:26;98351.28;;;28.22;48.01
42519;BME280;28147;47.520;18.920;2023-07-16T04:03:52;98342.59;;;28.48;47.40
42519;BME280;28147;47.520;18.920;2023-07-16T04:06:17;98348.22;;;28.71;46.99
42519;BME280;28147;47.520;18.920;2023-07-16T04:08:43;98349.19;;;28.95;46.53
42519;BME280;28147;47.520;18.920;2023-07-16T04:11:08;98357.84;;;28.97;46.99
42519;BME280;28147;47.520;18.920;2023-07-16T04:13:33;98345.84;;;29.01;46.63
42519;BME280;28147;47.520;18.920;2023-07-16T04:16:00;98340.44;;;28.89;47.60
42519;BME280;28147;47.520;18.920;2023-07-16T04:18:26;98329.41;;;29.21;46.44
42519;BME280;28147;47.520;18.920;2023-07-16T04:20:51;98340.38;;;29.37;46.17
42519;BME280;28147;47.520;18.920;2023-07-16T04:23:17;98347.13;;;29.43;46.51
42519;BME280;28147;47.520;18.920;2023-07-16T04:25:43;98350.28;;;29.61;45.73
42519;BME280;28147;47.520;18.920;2023-07-16T04:28:10;98351.69;;;29.54;47.09
42519;BME280;28147;47.520;18.920;2023-07-16T04:30:35;98348.84;;;29.86;45.16
42519;BME280;28147;47.520;18.920;2023-07-16T04:33:02;98355.25;;;29.94;45.40
42519;BME280;28147;47.520;18.920;2023-07-16T04:35:28;98362.72;;;29.93;45.12
42519;BME280;28147;47.520;18.920;2023-07-16T04:37:53;98353.16;;;29.87;44.98
42519;BME280;28147;47.520;18.920;2023-07-16T04:40:18;98357.13;;;30.09;44.45
42519;BME280;28147;47.520;18.920;2023-07-16T04:42:44;98362.34;;;29.95;44.63
42519;BME280;28147;47.520;18.920;2023-07-16T04:45:09;98363.22;;;29.79;43.89
42519;BME280;28147;47.520;18.920;2023-07-16T04:47:35;98367.66;;;30.07;43.62
42519;BME280;28147;47.520;18.920;2023-07-16T04:50:00;98373.88;;;30.04;45.01
42519;BME280;28147;47.520;18.920;2023-07-16T04:52:26;98382.22;;;30.30;44.92
42519;BME280;28147;47.520;18.920;2023-07-16T04:54:51;98384.75;;;30.39;45.15
42519;BME280;28147;47.520;18.920;2023-07-16T04:57:17;98382.03;;;30.62;44.89
42519;BME280;28147;47.520;18.920;2023-07-16T04:59:42;98385.31;;;29.67;46.75
42519;BME280;28147;47.520;18.920;2023-07-16T05:02:08;98382.59;;;30.29;46.66
42519;BME280;28147;47.520;18.920;2023-07-16T05:04:34;98389.09;;;30.40;46.51
42519;BME280;28147;47.520;18.920;2023-07-16T05:07:01;98394.38;;;30.29;46.35
42519;BME280;28147;47.520;18.920;2023-07-16T05:09:27;98375.19;;;30.75;45.19
42519;BME280;28147;47.520;18.920;2023-07-16T05:11:53;98376.78;;;30.76;46.73
42519;BME280;28147;47.520;18.920;2023-07-16T05:14:18;98386.31;;;31.09;45.01
42519;BME280;28147;47.520;18.920;2023-07-16T05:16:43;98392.19;;;31.08;42.07
42519;BME280;28147;47.520;18.920;2023-07-16T05:19:09;98390.00;;;30.71;42.17
42519;BME280;28147;47.520;18.920;2023-07-16T05:21:34;98388.97;;;30.56;40.49
42519;BME280;28147;47.520;18.920;2023-07-16T05:24:00;98376.88;;;30.84;39.51
42519;BME280;28147;47.520;18.920;2023-07-16T05:26:25;98376.03;;;31.06;40.11
42519;BME280;28147;47.520;18.920;2023-07-16T05:28:51;98381.50;;;31.02;37.33
42519;BME280;28147;47.520;18.920;2023-07-16T05:31:16;98381.88;;;31.27;39.61
42519;BME280;28147;47.520;18.920;2023-07-16T05:33:41;98384.81;;;31.38;38.33
42519;BME280;28147;47.520;18.920;2023-07-16T05:36:07;98384.38;;;31.36;37.84
42519;BME280;28147;47.520;18.920;2023-07-16T05:38:32;98379.09;;;31.84;37.95
42519;BME280;28147;47.520;18.920;2023-07-16T05:41:02;98376.69;;;31.79;37.62
42519;BME280;28147;47.520;18.920;2023-07-16T05:43:28;98383.53;;;31.92;38.59
42519;BME280;28147;47.520;18.920;2023-07-16T05:45:53;98395.09;;;32.42;39.35
42519;BME280;28147;47.520;18.920;2023-07-16T05:48:19;98381.31;;;32.42;39.06
42519;BME280;28147;47.520;18.920;2023-07-16T05:50:44;98384.97;;;32.13;40.00
42519;BME280;28147;47.520;18.920;2023-07-16T05:53:10;98384.84;;;32.39;40.78
42519;BME280;28147;47.520;18.920;2023-07-16T05:55:36;98385.09;;;32.27;39.77
42519;BME280;28147;47.520;18.920;2023-07-16T05:58:01;98393.56;;;32.45;40.39
42519;BME280;28147;47.520;18.920;2023-07-16T06:00:26;98400.91;;;32.75;40.31
42519;BME280;28147;47.520;18.920;2023-07-16T06:02:52;98407.75;;;32.91;40.48
42519;BME280;28147;47.520;18.920;2023-07-16T06:05:17;98406.31;;;33.05;39.09
42519;BME280;28147;47.520;18.920;2023-07-16T06:07:43;98402.97;;;33.36;38.83
42519;BME280;28147;47.520;18.920;2023-07-16T06:10:08;98402.69;;;33.52;38.80
42519;BME280;28147;47.520;18.920;2023-07-16T06:12:34;98401.72;;;33.23;36.08
42519;BME280;28147;47.520;18.920;2023-07-16T06:15:00;98400.13;;;33.26;36.44
42519;BME280;28147;47.520;18.920;2023-07-16T06:17:25;98400.66;;;33.46;36.22
42519;BME280;28147;47.520;18.920;2023-07-16T06:19:50;98403.31;;;33.28;37.00
42519;BME280;28147;47.520;18.920;2023-07-16T06:22:17;98401.00;;;33.40;35.83
42519;BME280;28147;47.520;18.920;2023-07-16T06:24:42;98409.44;;;33.03;35.64
42519;BME280;28147;47.520;18.920;2023-07-16T06:27:08;98402.78;;;33.70;36.29
42519;BME280;28147;47.520;18.920;2023-07-16T06:29:33;98397.09;;;33.41;35.99
42519;BME280;28147;47.520;18.920;2023-07-16T06:31:59;98405.59;;;33.18;36.91
42519;BME280;28147;47.520;18.920;2023-07-16T06:34:25;98410.66;;;33.68;38.03
42519;BME280;28147;47.520;18.920;2023-07-16T06:36:51;98408.31;;;32.63;35.75
42519;BME280;28147;47.520;18.920;2023-07-16T06:39:16;98402.53;;;32.79;37.73
42519;BME280;28147;47.520;18.920;2023-07-16T06:41:42;98411.81;;;33.05;37.57
42519;BME280;28147;47.520;18.920;2023-07-16T06:44:07;98416.13;;;33.02;38.13
42519;BME280;28147;47.520;18.920;2023-07-16T06:46:33;98410.22;;;33.62;38.35
42519;BME280;28147;47.520;18.920;2023-07-16T06:48:58;98402.03;;;33.14;37.04
42519;BME280;28147;47.520;18.920;2023-07-16T06:51:24;98404.72;;;33.62;37.35
42519;BME280;28147;47.520;18.920;2023-07-16T06:53:49;98402.97;;;34.20;36.92
42519;BME280;28147;47.520;18.920;2023-07-16T06:56:15;98410.09;;;34.35;35.88
42519;BME280;28147;47.520;18.920;2023-07-16T06:58:40;98405.38;;;34.25;36.24
42519;BME280;28147;47.520;18.920;2023-07-16T07:01:05;98407.94;;;33.79;35.37
42519;BME280;28147;47.520;18.920;2023-07-16T07:03:31;98405.34;;;34.18;35.15
42519;BME280;28147;47.520;18.920;2023-07-16T07:06:01;98405.94;;;33.72;36.24
42519;BME280;28147;47.520;18.920;2023-07-16T07:08:26;98399.81;;;34.14;35.82
42519;BME280;28147;47.520;18.920;2023-07-16T07:10:52;98403.47;;;34.61;35.03
42519;BME280;28147;47.520;18.920;2023-07-16T07:13:17;98401.00;;;34.31;35.57
42519;BME280;28147;47.520;18.920;2023-07-16T07:15:42;98412.53;;;34.69;35.66
42519;BME280;28147;47.520;18.920;2023-07-16T07:18:08;98418.88;;;34.95;35.10
42519;BME280;28147;47.520;18.920;2023-07-16T07:20:33;98418.47;;;35.25;35.29
42519;BME280;28147;47.520;18.920;2023-07-16T07:22:59;98410.97;;;35.29;35.15
42519;BME280;28147;47.520;18.920;2023-07-16T07:25:27;98411.38;;;34.88;35.48
42519;BME280;28147;47.520;18.920;2023-07-16T07:27:53;98411.66;;;34.22;34.97
42519;BME280;28147;47.520;18.920;2023-07-16T07:30:18;98407.03;;;34.87;35.30
42519;BME280;28147;47.520;18.920;2023-07-16T07:32:43;98420.88;;;35.08;35.00
42519;BME280;28147;47.520;18.920;2023-07-16T07:35:09;98412.16;;;35.28;35.24
42519;BME280;28147;47.520;18.920;2023-07-16T07:37:34;98418.38;;;34.28;35.36
42519;BME280;28147;47.520;18.920;2023-07-16T07:40:00;98403.25;;;33.94;35.06
42519;BME280;28147;47.520;18.920;2023-07-16T07:42:25;98408.25;;;33.63;34.23
42519;BME280;28147;47.520;18.920;2023-07-16T07:44:52;98408.63;;;32.99;35.17
42519;BME280;28147;47.520;18.920;2023-07-16T07:47:17;98403.81;;;32.89;35.86
42519;BME280;28147;47.520;18.920;2023-07-16T07:49:43;98405.47;;;33.59;35.94
42519;BME280;28147;47.520;18.920;2023-07-16T07:52:08;98404.16;;;33.35;35.38
42519;BME280;28147;47.520;18.920;2023-07-16T07:54:33;98408.09;;;33.38;35.03
42519;BME280;28147;47.520;18.920;2023-07-16T07:57:03;98408.50;;;34.24;34.53
42519;BME280;28147;47.520;18.920;2023-07-16T07:59:29;98413.22;;;33.36;35.08
42519;BME280;28147;47.520;18.920;2023-07-16T08:01:55;98410.06;;;33.37;34.12
42519;BME280;28147;47.520;18.920;2023-07-16T08:04:20;98405.94;;;33.69;34.29
42519;BME280;28147;47.520;18.920;2023-07-16T08:06:46;98404.81;;;33.87;34.15
42519;BME280;28147;47.520;18.920;2023-07-16T08:09:11;98408.47;;;34.02;33.31
42519;BME280;28147;47.520;18.920;2023-07-16T08:11:36;98410.91;;;34.43;32.48
42519;BME280;28147;47.520;18.920;2023-07-16T08:14:02;98409.63;;;34.05;33.49
42519;BME280;28147;47.520;18.920;2023-07-16T08:16:27;98413.22;;;34.12;33.49
42519;BME280;28147;47.520;18.920;2023-07-16T08:18:53;98411.09;;;33.77;32.68
42519;BME280;28147;47.520;18.920;2023-07-16T08:21:18;98403.72;;;34.03;33.84
42519;BME280;28147;47.520;18.920;2023-07-16T08:23:48;98403.75;;;34.13;33.85
42519;BME280;28147;47.520;18.920;2023-07-16T08:26:14;98408.47;;;34.13;33.25
42519;BME280;28147;47.520;18.920;2023-07-16T08:28:39;98401.44;;;34.33;33.88
42519;BME280;28147;47.520;18.920;2023-07-16T08:31:05;98408.31;;;33.74;33.59
42519;BME280;28147;47.520;18.920;2023-07-16T08:33:30;98404.22;;;34.55;34.04
42519;BME280;28147;47.520;18.920;2023-07-16T08:35:58;98403.81;;;34.42;34.04
42519;BME280;28147;47.520;18.920;2023-07-16T08:38:23;98398.72;;;34.66;32.89
42519;BME280;28147;47.520;18.920;2023-07-16T08:40:49;98397.13;;;34.61;33.50
42519;BME280;28147;47.520;18.920;2023-07-16T08:43:15;98401.09;;;35.17;32.60
42519;BME280;28147;47.520;18.920;2023-07-16T08:45:41;98406.25;;;34.97;33.08
42519;BME280;28147;47.520;18.920;2023-07-16T08:48:11;98401.53;;;35.01;34.26
42519;BME280;28147;47.520;18.920;2023-07-16T08:50:37;98407.00;;;35.16;33.84
42519;BME280;28147;47.520;18.920;2023-07-16T08:53:07;98409.00;;;34.97;32.91
42519;BME280;28147;47.520;18.920;2023-07-16T08:55:32;98416.13;;;35.02;33.69
42519;BME280;28147;47.520;18.920;2023-07-16T08:57:58;98415.72;;;35.03;32.34
42519;BME280;28147;47.520;18.920;2023-07-16T09:00:27;98406.97;;;35.48;32.46
42519;BME280;28147;47.520;18.920;2023-07-16T09:02:53;98413.22;;;35.77;32.24
42519;BME280;28147;47.520;18.920;2023-07-16T09:05:20;98419.28;;;34.97;32.91
42519;BME280;28147;47.520;18.920;2023-07-16T09:07:46;98411.69;;;34.47;34.25
42519;BME280;28147;47.520;18.920;2023-07-16T09:10:12;98414.81;;;34.13;34.20
42519;BME280;28147;47.520;18.920;2023-07-16T09:12:42;98417.31;;;34.97;33.63
42519;BME280;28147;47.520;18.920;2023-07-16T09:15:08;98410.72;;;36.11;34.02
42519;BME280;28147;47.520;18.920;2023-07-16T09:17:34;98408.50;;;34.24;34.42
42519;BME280;28147;47.520;18.920;2023-07-16T09:20:02;98416.50;;;34.72;35.22
42519;BME280;28147;47.520;18.920;2023-07-16T09:22:29;98407.31;;;35.71;33.16
42519;BME280;28147;47.520;18.920;2023-07-16T09:24:54;98405.69;;;36.58;32.46
42519;BME280;28147;47.520;18.920;2023-07-16T09:27:28;98410.00;;;35.93;33.44
42519;BME280;28147;47.520;18.920;2023-07-16T09:29:53;98409.03;;;35.04;32.78
42519;BME280;28147;47.520;18.920;2023-07-16T09:32:18;98409.75;;;35.37;33.08
42519;BME280;28147;47.520;18.920;2023-07-16T09:34:45;98415.59;;;35.78;32.80
42519;BME280;28147;47.520;18.920;2023-07-16T09:37:10;98417.25;;;35.58;32.03
42519;BME280;28147;47.520;18.920;2023-07-16T09:39:37;98417.31;;;34.83;32.94
42519;BME280;28147;47.520;18.920;2023-07-16T09:42:02;98416.44;;;36.52;31.47
42519;BME280;28147;47.520;18.920;2023-07-16T09:44:29;98410.38;;;35.95;30.91
42519;BME280;28147;47.520;18.920;2023-07-16T09:46:55;98408.53;;;35.60;32.44
42519;BME280;28147;47.520;18.920;2023-07-16T09:49:20;98414.13;;;34.92;31.66
42519;BME280;28147;47.520;18.920;2023-07-16T09:51:48;98419.69;;;35.02;33.03
42519;BME280;28147;47.520;18.920;2023-07-16T09:54:14;98409.41;;;34.99;33.58
42519;BME280;28147;47.520;18.920;2023-07-16T09:56:48;98415.31;;;34.91;33.88
42519;BME280;28147;47.520;18.920;2023-07-16T09:59:16;98402.28;;;36.29;33.85
42519;BME280;28147;47.520;18.920;2023-07-16T10:01:44;98407.38;;;37.38;32.27
42519;BME280;28147;47.520;18.920;2023-07-16T10:04:14;98407.88;;;36.81;31.37
42519;BME280;28147;47.520;18.920;2023-07-16T10:06:57;98403.19;;;36.71;31.88
42519;BME280;28147;47.520;18.920;2023-07-16T10:09:38;98406.28;;;35.01;34.33
42519;BME280;28147;47.520;18.920;2023-07-16T10:12:24;98395.28;;;36.10;35.29
42519;BME280;28147;47.520;18.920;2023-07-16T10:14:54;98394.69;;;36.40;32.94
42519;BME280;28147;47.520;18.920;2023-07-16T10:17:24;98399.50;;;36.29;33.82
42519;BME280;28147;47.520;18.920;2023-07-16T10:22:17;98396.56;;;37.10;32.58
42519;BME280;28147;47.520;18.920;2023-07-16T10:24:43;98391.09;;;37.44;30.61
42519;BME280;28147;47.520;18.920;2023-07-16T10:27:09;98390.34;;;37.74;31.34
42519;BME280;28147;47.520;18.920;2023-07-16T10:29:34;98386.50;;;36.78;31.45
42519;BME280;28147;47.520;18.920;2023-07-16T10:32:02;98380.47;;;36.35;32.32
42519;BME280;28147;47.520;18.920;2023-07-16T10:34:27;98390.91;;;36.75;32.56
42519;BME280;28147;47.520;18.920;2023-07-16T10:36:53;98385.13;;;36.52;33.00
42519;BME280;28147;47.520;18.920;2023-07-16T10:39:18;98378.75;;;36.59;33.58
42519;BME280;28147;47.520;18.920;2023-07-16T10:41:44;98382.56;;;36.16;31.96
42519;BME280;28147;47.520;18.920;2023-07-16T10:44:13;98384.41;;;36.89;32.42
42519;BME280;28147;47.520;18.920;2023-07-16T10:46:41;98381.09;;;36.64;31.03
42519;BME280;28147;47.520;18.920;2023-07-16T10:49:07;98369.31;;;36.45;30.46
42519;BME280;28147;47.520;18.920;2023-07-16T10:51:33;98387.03;;;35.96;30.74
42519;BME280;28147;47.520;18.920;2023-07-16T10:53:58;98379.25;;;37.36;29.96
42519;BME280;28147;47.520;18.920;2023-07-16T10:56:24;98379.25;;;36.39;30.98
42519;BME280;28147;47.520;18.920;2023-07-16T10:58:50;98375.91;;;36.66;32.41
42519;BME280;28147;47.520;18.920;2023-07-16T11:01:16;98383.19;;;36.49;32.02
42519;BME280;28147;47.520;18.920;2023-07-16T11:03:42;98380.28;;;36.63;31.37
42519;BME280;28147;47.520;18.920;2023-07-16T11:06:10;98377.16;;;36.61;33.49
42519;BME280;28147;47.520;18.920;2023-07-16T11:08:37;98373.91;;;36.66;32.37
42519;BME280;28147;47.520;18.920;2023-07-16T11:11:02;98376.81;;;37.00;32.00
42519;BME280;28147;47.520;18.920;2023-07-16T11:13:29;98381.22;;;37.73;30.20
42519;BME280;28147;47.520;18.920;2023-07-16T11:15:56;98379.25;;;36.91;30.94
42519;BME280;28147;47.520;18.920;2023-07-16T11:18:24;98376.19;;;34.85;32.52
42519;BME280;28147;47.520;18.920;2023-07-16T11:20:53;98374.47;;;35.73;31.98
42519;BME280;28147;47.520;18.920;2023-07-16T11:23:19;98376.06;;;36.96;32.07
42519;BME280;28147;47.520;18.920;2023-07-16T11:25:48;98370.38;;;36.03;31.37
42519;BME280;28147;47.520;18.920;2023-07-16T11:28:14;98369.00;;;35.55;32.84
42519;BME280;28147;47.520;18.920;2023-07-16T11:30:40;98381.72;;;35.28;32.70
42519;BME280;28147;47.520;18.920;2023-07-16T11:33:10;98377.72;;;35.54;32.86
42519;BME280;28147;47.520;18.920;2023-07-16T11:35:36;98369.66;;;37.03;30.71
42519;BME280;28147;47.520;18.920;2023-07-16T11:38:02;98377.72;;;37.32;31.67
42519;BME280;28147;47.520;18.920;2023-07-16T11:40:29;98378.88;;;36.37;31.42
42519;BME280;28147;47.520;18.920;2023-07-16T11:42:54;98378.28;;;35.97;32.96
42519;BME280;28147;47.520;18.920;2023-07-16T11:45:23;98376.31;;;36.05;32.70
42519;BME280;28147;47.520;18.920;2023-07-16T11:47:50;98375.22;;;37.03;32.54
42519;BME280;28147;47.520;18.920;2023-07-16T11:50:16;98376.28;;;36.09;34.74
42519;BME280;28147;47.520;18.920;2023-07-16T11:52:41;98370.22;;;35.33;32.80
42519;BME280;28147;47.520;18.920;2023-07-16T11:55:07;98373.00;;;35.19;33.80
42519;BME280;28147;47.520;18.920;2023-07-16T11:57:33;98370.31;;;36.14;32.68
42519;BME280;28147;47.520;18.920;2023-07-16T11:59:58;98374.66;;;36.15;32.33
42519;BME280;28147;47.520;18.920;2023-07-16T12:02:25;98367.53;;;37.18;31.24
42519;BME280;28147;47.520;18.920;2023-07-16T12:04:51;98365.78;;;37.31;30.56
42519;BME280;28147;47.520;18.920;2023-07-16T12:07:33;98373.06;;;36.76;29.89
42519;BME280;28147;47.520;18.920;2023-07-16T12:10:00;98378.31;;;36.01;31.53
42519;BME280;28147;47.520;18.920;2023-07-16T12:12:25;98372.63;;;34.95;31.77
42519;BME280;28147;47.520;18.920;2023-07-16T12:14:51;98367.88;;;34.92;33.29
42519;BME280;28147;47.520;18.920;2023-07-16T12:17:16;98371.06;;;34.80;33.15
42519;BME280;28147;47.520;18.920;2023-07-16T12:19:42;98374.56;;;34.30;33.44
42519;BME280;28147;47.520;18.920;2023-07-16T12:22:07;98365.47;;;35.23;31.44
42519;BME280;28147;47.520;18.920;2023-07-16T12:24:33;98370.69;;;34.64;33.14
42519;BME280;28147;47.520;18.920;2023-07-16T12:26:59;98365.78;;;35.64;31.72
42519;BME280;28147;47.520;18.920;2023-07-16T12:29:24;98364.69;;;35.33;32.80
42519;BME280;28147;47.520;18.920;2023-07-16T12:31:49;98365.91;;;34.96;32.95
42519;BME280;28147;47.520;18.920;2023-07-16T12:34:15;98363.06;;;35.46;32.40
42519;BME280;28147;47.520;18.920;2023-07-16T12:36:40;98365.16;;;34.64;34.65
42519;BME280;28147;47.520;18.920;2023-07-16T12:39:05;98366.72;;;34.90;34.22
42519;BME280;28147;47.520;18.920;2023-07-16T12:41:31;98358.91;;;35.94;33.61
42519;BME280;28147;47.520;18.920;2023-07-16T12:43:56;98367.22;;;35.94;34.45
42519;BME280;28147;47.520;18.920;2023-07-16T12:46:22;98359.59;;;35.10;33.11
42519;BME280;28147;47.520;18.920;2023-07-16T12:48:47;98367.91;;;34.64;34.50
42519;BME280;28147;47.520;18.920;2023-07-16T12:51:12;98368.69;;;34.50;34.06
42519;BME280;28147;47.520;18.920;2023-07-16T12:53:38;98369.88;;;34.88;33.74
42519;BME280;28147;47.520;18.920;2023-07-16T12:56:03;98363.53;;;34.98;33.36